x

Southeast Bering Sea -205nm Wnw Of Dutch Harbor, Ak (46073) Wave Buoy

12:50 - Tue 27th Jan 2015 All times are UTC.

  • Sig Wave height 17.1ft
  • Swell Direction
  • Peak Period 11s
  • Average Period 8s
  • Wind
    34mph, 40mph gusts
  • Sea Temp 39°f
  • Aire Temp 33°f
  • Sea Pressure 997.7mb

More Historic Weather Station data

Upgrade to MSW Pro to gain access to the past 30 days of data for over 8000 Wavebouys and Weather Stations around the globe.

Join Pro

Comparision Forecast

View Surf forecast
   
mar 01/27 12:50 17ft 11s 8s 34 40 mph 997.7mb 39f 33f
11:50 18.5ft 11s 8s 34 40 mph 997.4mb 39f 32f
10:50 17ft 11s 8s 34 40 mph 997.2mb 39f 32f
9:50 15.5ft 10s 8s 34 40 mph 997.1mb 39f 32f
8:50 15ft 11s 8s 29 38 mph 997mb 39f 32f
7:50 18ft 10s 8s 31 38 mph 996.7mb 39f 32f
6:50 15.5ft 11s 8s 31 38 mph 996.1mb 39f 33f
5:50 14ft 11s 7s 29 34 mph 995.9mb 39f 33f
4:50 15.5ft 11s 8s 29 36 mph 995.5mb 39f 33f
3:50 15ft 11s 8s 29 36 mph 995.2mb 39f 33f
2:50 15ft 11s 8s 29 36 mph 995.1mb 39f 33f
1:50 15.5ft 10s 8s 29 38 mph 994.9mb 39f 33f
12:50 15.5ft 11s 8s 29 38 mph 994.8mb 39f 33f
lun 01/26 11:50 17.5ft 11s 8s 31 38 mph 994.8mb 39f 32f
10:50 16.5ft 11s 8s 34 40 mph 994.9mb 39f 32f
9:50 18.5ft 11s 8s 34 43 mph 995mb 39f 32f
8:50 16ft 11s 8s 36 43 mph 994.6mb 39f 33f
7:50 19.5ft 11s 8s 34 40 mph 994.5mb 39f 32f
6:50 18.5ft 11s 8s 34 43 mph 994mb 39f 33f
5:50 17ft 11s 8s 36 43 mph 993.7mb 39f 34f
4:50 18.5ft 11s 8s 36 47 mph 993.4mb 39f 34f
3:50 16.5ft 10s 8s 36 47 mph 993.3mb 39f 33f
2:50 16.5ft 10s 8s 36 43 mph 993.2mb 39f 34f
1:50 13.5ft 10s 7s 36 43 mph 993.2mb 39f 35f
12:50 13ft 10s 7s 31 40 mph 993.6mb 39f 35f
11:50 13ft 9s 7s 29 36 mph 993.9mb 39f 35f
10:50 13ft 10s 8s 29 34 mph 994.2mb 39f 35f
9:50 12ft 9s 7s 22 27 mph 994.9mb 39f 35f
8:50 11ft 9s 7s 20 25 mph 995.1mb 39f 35f
7:50 15ft 9s 7s 29 36 mph 995.4mb 39f 34f
6:50 12.5ft 9s 7s 31 38 mph 996.1mb 39f 34f
5:50 11ft 8s 6s 31 38 mph 996.6mb 39f 34f
4:50 11.5ft 8s 7s 29 36 mph 997mb 39f 35f
3:50 11.5ft 8s 7s 29 36 mph 997mb 39f 35f
2:50 11.5ft 8s 7s 31 38 mph 997.2mb 39f 35f
1:50 11.5ft 8s 7s 29 38 mph 997.4mb 39f 35f
12:50 11.5ft 8s 7s 31 38 mph 997.7mb 39f 34f
dom 01/25 11:50 10.5ft 8s 6s 31 38 mph 998.3mb 39f 35f
10:50 9.5ft 8s 6s 31 40 mph 998.8mb 39f 34f
9:50 10ft 8s 6s 31 36 mph 999.4mb 39f 35f
8:50 10ft 7s 6s 31 38 mph 999.4mb 39f 34f
7:50 10ft 7s 6s 31 36 mph 999.5mb 39f 34f
6:50 9.5ft 7s 6s 31 36 mph 999.6mb 39f 34f
5:50 9ft 7s 6s 29 38 mph 999.9mb 39f 33f
4:50 8.5ft 7s 6s 29 36 mph 1000.3mb 39f 34f
3:50 8ft 6s 5s 29 34 mph 1001mb 39f 33f
2:50 7.5ft 7s 5s 29 34 mph 1001.7mb 39f 33f
1:50 7ft 7s 5s 27 34 mph 1002.4mb 39f 33f
12:50 7ft 6s 5s 27 34 mph 1003mb 39f 32f
11:50 7ft 6s 5s 27 34 mph 1003.3mb 39f 32f
10:50 7ft 6s 5s 25 29 mph 1004mb 39f 33f
9:50 6ft 8s 5s 25 29 mph 1004.6mb 39f 32f
8:50 6ft 6s 5s 22 27 mph 1005.2mb 39f 32f
7:50 5.5ft 8s 5s 25 29 mph 1005.2mb 39f 32f
6:50 6ft 6s 5s 22 27 mph 1005.9mb 39f 31f
5:50 5.5ft 5s 5s 20 25 mph 1006.1mb 39f 32f
4:50 5ft 6s 5s 20 25 mph 1006.7mb 39f 31f
3:50 5.5ft 8s 6s 20 22 mph 1006.9mb 39f 31f
2:50 6ft 8s 6s 20 25 mph 1007mb 39f 31f
1:50 7ft 8s 6s 16 20 mph 1007.7mb 39f 30f
12:50 6.5ft 9s 6s 18 22 mph 1008.6mb 39f 30f
sáb 01/24 11:50 7.5ft 8s 6s 13 18 mph 1009.5mb 39f 29f
10:50 7ft 8s 6s 16 22 mph 1010.4mb 39f 29f
9:50 7ft 9s 6s 16 20 mph 1010.9mb 39f 31f
8:50 7.5ft 9s 6s 18 20 mph 1011.3mb 39f 30f
7:50 7.5ft 8s 7s 16 20 mph 1011.4mb 39f 31f
6:50 7.5ft 8s 7s 18 22 mph 1011.5mb 39f 30f
5:50 7ft 9s 6s 16 20 mph 1011.7mb 39f 29f
4:50 8ft 9s 7s 13 18 mph 1012.2mb 39f 30f
3:50 8ft 9s 7s 16 20 mph 1012.4mb 39f 30f
2:50 7.5ft 10s 7s 16 18 mph 1012.6mb 39f 30f
1:50 8ft 10s 7s 18 22 mph 1013mb 39f 30f
12:50 8ft 9s 7s 16 20 mph 1013.5mb 39f 29f
11:50 9ft 10s 7s 16 20 mph 1013.6mb 39f 29f
10:50 10.5ft 10s 7s 18 20 mph 1013.2mb 39f 29f
9:50 11ft 11s 7s 20 22 mph 1013.1mb 39f 29f
8:50 12ft 10s 8s 18 22 mph 1013.6mb 39f 29f
7:50 11ft 10s 7s 18 22 mph 1013.6mb 39f 29f
6:50 11ft 11s 7s 20 27 mph 1013.1mb 39f 29f
5:50 11ft 11s 7s 20 27 mph 1013mb 39f 29f
4:50 11ft 11s 7s 20 27 mph 1012.8mb 39f 29f
3:50 12.5ft 10s 7s 20 27 mph 1012.9mb 40f 29f
2:50 13ft 11s 8s 22 27 mph 1012.5mb 40f 29f
1:50 13ft 10s 8s 20 27 mph 1012.2mb 40f 29f
12:50 13ft 11s 8s 22 27 mph 1011.4mb 40f 30f
vie 01/23 11:50 14ft 11s 8s 22 29 mph 1011.3mb 40f 30f
10:50 14.5ft 10s 8s 25 31 mph 1010.9mb 40f 30f
9:50 13.5ft 10s 8s 25 29 mph 1011mb 40f 30f
8:50 14ft 11s 8s 25 31 mph 1010.8mb 40f 30f
7:50 15ft 11s 8s 27 31 mph 1010.4mb 40f 30f
6:50 17ft 11s 8s 27 34 mph 1009.4mb 39f 30f
5:50 16.5ft 12s 8s 25 36 mph 1008.7mb 40f 30f
4:50 17.5ft 11s 9s 29 34 mph 1007.9mb 39f 30f
3:50 16.5ft 12s 8s 27 36 mph 1007.7mb 40f 29f
2:50 16.5ft 12s 8s 27 34 mph 1007.1mb 40f 30f
1:50 18.5ft 11s 9s 29 36 mph 1006.3mb 40f 29f